sensor_id;sensor_type;location;lat;lon;timestamp;P1;durP1;ratioP1;P2;durP2;ratioP2
19030;SDS011;9648;51.130;13.978;2024-01-16T00:00:58;3.43;;;2.00;;
19030;SDS011;9648;51.130;13.978;2024-01-16T00:03:59;5.07;;;3.00;;
19030;SDS011;9648;51.130;13.978;2024-01-16T00:07:00;6.23;;;1.87;;
19030;SDS011;9648;51.130;13.978;2024-01-16T00:10:02;6.80;;;1.80;;
19030;SDS011;9648;51.130;13.978;2024-01-16T00:13:06;8.67;;;1.93;;
19030;SDS011;9648;51.130;13.978;2024-01-16T00:16:09;8.30;;;2.30;;
19030;SDS011;9648;51.130;13.978;2024-01-16T00:19:10;4.73;;;1.70;;
19030;SDS011;9648;51.130;13.978;2024-01-16T00:22:12;5.93;;;1.73;;
19030;SDS011;9648;51.130;13.978;2024-01-16T00:25:13;3.53;;;1.77;;
19030;SDS011;9648;51.130;13.978;2024-01-16T00:28:16;4.23;;;1.60;;
19030;SDS011;9648;51.130;13.978;2024-01-16T00:31:19;3.27;;;1.50;;
19030;SDS011;9648;51.130;13.978;2024-01-16T00:34:21;4.23;;;1.50;;
19030;SDS011;9648;51.130;13.978;2024-01-16T00:37:22;3.67;;;1.33;;
19030;SDS011;9648;51.130;13.978;2024-01-16T00:40:24;6.23;;;1.67;;
19030;SDS011;9648;51.130;13.978;2024-01-16T00:43:27;5.10;;;1.37;;
19030;SDS011;9648;51.130;13.978;2024-01-16T00:46:28;3.90;;;1.20;;
19030;SDS011;9648;51.130;13.978;2024-01-16T00:49:30;6.33;;;1.63;;
19030;SDS011;9648;51.130;13.978;2024-01-16T00:52:31;7.90;;;2.10;;
19030;SDS011;9648;51.130;13.978;2024-01-16T00:55:33;6.60;;;1.63;;
19030;SDS011;9648;51.130;13.978;2024-01-16T00:58:36;8.60;;;2.33;;
19030;SDS011;9648;51.130;13.978;2024-01-16T01:01:37;4.93;;;1.80;;
19030;SDS011;9648;51.130;13.978;2024-01-16T01:04:39;5.13;;;2.77;;
19030;SDS011;9648;51.130;13.978;2024-01-16T01:07:41;8.37;;;2.10;;
19030;SDS011;9648;51.130;13.978;2024-01-16T01:10:43;6.20;;;2.30;;
19030;SDS011;9648;51.130;13.978;2024-01-16T01:13:46;6.80;;;2.80;;
19030;SDS011;9648;51.130;13.978;2024-01-16T01:16:47;6.87;;;2.07;;
19030;SDS011;9648;51.130;13.978;2024-01-16T01:19:49;8.43;;;2.93;;
19030;SDS011;9648;51.130;13.978;2024-01-16T01:22:50;9.90;;;2.23;;
19030;SDS011;9648;51.130;13.978;2024-01-16T01:25:52;13.57;;;2.70;;
19030;SDS011;9648;51.130;13.978;2024-01-16T01:28:54;5.27;;;2.23;;
19030;SDS011;9648;51.130;13.978;2024-01-16T01:31:56;8.23;;;2.43;;
19030;SDS011;9648;51.130;13.978;2024-01-16T01:34:57;6.30;;;2.50;;
19030;SDS011;9648;51.130;13.978;2024-01-16T01:37:59;5.93;;;2.70;;
19030;SDS011;9648;51.130;13.978;2024-01-16T01:41:00;7.67;;;2.50;;
19030;SDS011;9648;51.130;13.978;2024-01-16T01:44:03;5.23;;;2.20;;
19030;SDS011;9648;51.130;13.978;2024-01-16T01:47:05;7.23;;;2.53;;
19030;SDS011;9648;51.130;13.978;2024-01-16T01:50:07;5.93;;;2.40;;
19030;SDS011;9648;51.130;13.978;2024-01-16T01:53:09;6.70;;;2.53;;
19030;SDS011;9648;51.130;13.978;2024-01-16T01:56:11;4.87;;;2.50;;
19030;SDS011;9648;51.130;13.978;2024-01-16T01:59:17;4.57;;;2.50;;
19030;SDS011;9648;51.130;13.978;2024-01-16T02:02:19;6.47;;;2.23;;
19030;SDS011;9648;51.130;13.978;2024-01-16T02:05:21;6.33;;;2.80;;
19030;SDS011;9648;51.130;13.978;2024-01-16T02:08:23;8.40;;;2.70;;
19030;SDS011;9648;51.130;13.978;2024-01-16T02:11:25;4.73;;;2.43;;
19030;SDS011;9648;51.130;13.978;2024-01-16T02:14:28;9.37;;;3.47;;
19030;SDS011;9648;51.130;13.978;2024-01-16T02:17:30;6.17;;;2.97;;
19030;SDS011;9648;51.130;13.978;2024-01-16T02:20:31;6.67;;;3.10;;
19030;SDS011;9648;51.130;13.978;2024-01-16T02:23:34;4.53;;;2.20;;
19030;SDS011;9648;51.130;13.978;2024-01-16T02:26:36;6.07;;;2.67;;
19030;SDS011;9648;51.130;13.978;2024-01-16T02:29:40;5.00;;;2.60;;
19030;SDS011;9648;51.130;13.978;2024-01-16T02:32:41;9.00;;;2.57;;
19030;SDS011;9648;51.130;13.978;2024-01-16T02:35:43;7.97;;;2.80;;
19030;SDS011;9648;51.130;13.978;2024-01-16T02:38:46;10.03;;;2.57;;
19030;SDS011;9648;51.130;13.978;2024-01-16T02:41:48;4.43;;;2.27;;
19030;SDS011;9648;51.130;13.978;2024-01-16T02:44:49;6.20;;;2.40;;
19030;SDS011;9648;51.130;13.978;2024-01-16T02:47:51;11.47;;;2.43;;
19030;SDS011;9648;51.130;13.978;2024-01-16T02:50:52;8.80;;;2.70;;
19030;SDS011;9648;51.130;13.978;2024-01-16T02:53:55;12.70;;;2.63;;
19030;SDS011;9648;51.130;13.978;2024-01-16T02:56:57;5.67;;;2.63;;
19030;SDS011;9648;51.130;13.978;2024-01-16T02:59:58;8.83;;;2.40;;
19030;SDS011;9648;51.130;13.978;2024-01-16T03:03:00;7.57;;;2.47;;
19030;SDS011;9648;51.130;13.978;2024-01-16T03:06:01;7.07;;;2.50;;
19030;SDS011;9648;51.130;13.978;2024-01-16T03:09:04;6.57;;;2.70;;
19030;SDS011;9648;51.130;13.978;2024-01-16T03:12:06;11.33;;;2.47;;
19030;SDS011;9648;51.130;13.978;2024-01-16T03:15:08;11.07;;;2.70;;
19030;SDS011;9648;51.130;13.978;2024-01-16T03:18:10;6.47;;;2.10;;
19030;SDS011;9648;51.130;13.978;2024-01-16T03:21:12;6.23;;;2.40;;
19030;SDS011;9648;51.130;13.978;2024-01-16T03:24:16;6.07;;;2.20;;
19030;SDS011;9648;51.130;13.978;2024-01-16T03:27:17;7.53;;;2.00;;
19030;SDS011;9648;51.130;13.978;2024-01-16T03:30:19;4.63;;;2.10;;
19030;SDS011;9648;51.130;13.978;2024-01-16T03:33:22;3.67;;;1.73;;
19030;SDS011;9648;51.130;13.978;2024-01-16T03:36:23;5.40;;;1.80;;
19030;SDS011;9648;51.130;13.978;2024-01-16T03:39:26;4.33;;;1.67;;
19030;SDS011;9648;51.130;13.978;2024-01-16T03:42:28;4.77;;;2.27;;
19030;SDS011;9648;51.130;13.978;2024-01-16T03:45:29;2.57;;;1.40;;
19030;SDS011;9648;51.130;13.978;2024-01-16T03:48:31;5.03;;;1.80;;
19030;SDS011;9648;51.130;13.978;2024-01-16T03:51:32;5.33;;;1.80;;
19030;SDS011;9648;51.130;13.978;2024-01-16T03:54:35;4.10;;;1.80;;
19030;SDS011;9648;51.130;13.978;2024-01-16T03:57:37;5.40;;;1.80;;
19030;SDS011;9648;51.130;13.978;2024-01-16T04:00:38;4.47;;;1.83;;
19030;SDS011;9648;51.130;13.978;2024-01-16T04:03:39;5.47;;;1.70;;
19030;SDS011;9648;51.130;13.978;2024-01-16T04:06:41;3.43;;;1.50;;
19030;SDS011;9648;51.130;13.978;2024-01-16T04:09:44;3.23;;;1.83;;
19030;SDS011;9648;51.130;13.978;2024-01-16T04:12:48;2.83;;;1.60;;
19030;SDS011;9648;51.130;13.978;2024-01-16T04:15:50;4.00;;;1.77;;
19030;SDS011;9648;51.130;13.978;2024-01-16T04:18:52;6.43;;;1.83;;
19030;SDS011;9648;51.130;13.978;2024-01-16T04:21:53;5.40;;;1.63;;
19030;SDS011;9648;51.130;13.978;2024-01-16T04:24:56;3.90;;;1.87;;
19030;SDS011;9648;51.130;13.978;2024-01-16T04:27:58;5.13;;;1.80;;
19030;SDS011;9648;51.130;13.978;2024-01-16T04:31:00;5.53;;;2.00;;
19030;SDS011;9648;51.130;13.978;2024-01-16T04:34:01;12.80;;;4.77;;
19030;SDS011;9648;51.130;13.978;2024-01-16T04:37:03;10.30;;;4.93;;
19030;SDS011;9648;51.130;13.978;2024-01-16T04:40:06;6.23;;;2.07;;
19030;SDS011;9648;51.130;13.978;2024-01-16T04:43:08;5.47;;;2.03;;
19030;SDS011;9648;51.130;13.978;2024-01-16T04:46:10;3.97;;;2.07;;
19030;SDS011;9648;51.130;13.978;2024-01-16T04:49:11;4.13;;;2.27;;
19030;SDS011;9648;51.130;13.978;2024-01-16T04:52:13;6.40;;;1.73;;
19030;SDS011;9648;51.130;13.978;2024-01-16T04:55:17;7.70;;;2.07;;
19030;SDS011;9648;51.130;13.978;2024-01-16T04:58:19;5.13;;;2.37;;
19030;SDS011;9648;51.130;13.978;2024-01-16T05:01:20;3.83;;;2.10;;
19030;SDS011;9648;51.130;13.978;2024-01-16T05:04:22;8.70;;;2.10;;
19030;SDS011;9648;51.130;13.978;2024-01-16T05:07:23;2.43;;;1.43;;
19030;SDS011;9648;51.130;13.978;2024-01-16T05:10:26;3.33;;;1.90;;
19030;SDS011;9648;51.130;13.978;2024-01-16T05:13:28;4.63;;;2.00;;
19030;SDS011;9648;51.130;13.978;2024-01-16T05:16:29;3.50;;;1.67;;
19030;SDS011;9648;51.130;13.978;2024-01-16T05:19:31;4.90;;;1.90;;
19030;SDS011;9648;51.130;13.978;2024-01-16T05:22:32;3.80;;;1.73;;
19030;SDS011;9648;51.130;13.978;2024-01-16T05:25:35;2.13;;;1.60;;
19030;SDS011;9648;51.130;13.978;2024-01-16T05:28:38;7.13;;;1.97;;
19030;SDS011;9648;51.130;13.978;2024-01-16T05:31:40;6.00;;;2.30;;
19030;SDS011;9648;51.130;13.978;2024-01-16T05:34:42;9.90;;;2.40;;
19030;SDS011;9648;51.130;13.978;2024-01-16T05:37:44;7.00;;;2.00;;
19030;SDS011;9648;51.130;13.978;2024-01-16T05:40:46;5.57;;;2.13;;
19030;SDS011;9648;51.130;13.978;2024-01-16T05:43:48;6.13;;;2.00;;
19030;SDS011;9648;51.130;13.978;2024-01-16T05:46:50;2.93;;;1.83;;
19030;SDS011;9648;51.130;13.978;2024-01-16T05:49:52;1.97;;;1.53;;
19030;SDS011;9648;51.130;13.978;2024-01-16T05:52:53;5.53;;;1.80;;
19030;SDS011;9648;51.130;13.978;2024-01-16T05:55:56;6.77;;;1.67;;
19030;SDS011;9648;51.130;13.978;2024-01-16T05:58:58;2.33;;;1.60;;
19030;SDS011;9648;51.130;13.978;2024-01-16T06:01:59;5.67;;;2.30;;
19030;SDS011;9648;51.130;13.978;2024-01-16T06:05:00;3.63;;;1.60;;
19030;SDS011;9648;51.130;13.978;2024-01-16T06:08:09;9.33;;;1.90;;
19030;SDS011;9648;51.130;13.978;2024-01-16T06:11:11;4.40;;;1.80;;
19030;SDS011;9648;51.130;13.978;2024-01-16T06:14:13;3.63;;;1.60;;
19030;SDS011;9648;51.130;13.978;2024-01-16T06:17:21;6.37;;;1.77;;
19030;SDS011;9648;51.130;13.978;2024-01-16T06:20:22;4.53;;;1.80;;
19030;SDS011;9648;51.130;13.978;2024-01-16T06:23:25;6.20;;;2.10;;
19030;SDS011;9648;51.130;13.978;2024-01-16T06:26:28;6.17;;;2.00;;
19030;SDS011;9648;51.130;13.978;2024-01-16T06:29:30;4.60;;;2.10;;
19030;SDS011;9648;51.130;13.978;2024-01-16T06:32:31;7.93;;;2.10;;
19030;SDS011;9648;51.130;13.978;2024-01-16T06:35:33;4.87;;;2.03;;
19030;SDS011;9648;51.130;13.978;2024-01-16T06:38:34;8.40;;;2.30;;
19030;SDS011;9648;51.130;13.978;2024-01-16T06:41:37;3.73;;;2.00;;
19030;SDS011;9648;51.130;13.978;2024-01-16T06:44:39;6.80;;;3.00;;
19030;SDS011;9648;51.130;13.978;2024-01-16T06:47:40;7.03;;;2.57;;
19030;SDS011;9648;51.130;13.978;2024-01-16T06:50:42;5.37;;;3.07;;
19030;SDS011;9648;51.130;13.978;2024-01-16T06:53:43;8.20;;;3.40;;
19030;SDS011;9648;51.130;13.978;2024-01-16T06:56:46;9.13;;;3.87;;
19030;SDS011;9648;51.130;13.978;2024-01-16T06:59:49;10.13;;;3.70;;
19030;SDS011;9648;51.130;13.978;2024-01-16T07:02:50;10.30;;;3.37;;
19030;SDS011;9648;51.130;13.978;2024-01-16T07:05:52;10.37;;;3.10;;
19030;SDS011;9648;51.130;13.978;2024-01-16T07:08:53;8.20;;;3.27;;
19030;SDS011;9648;51.130;13.978;2024-01-16T07:11:56;5.27;;;2.70;;
19030;SDS011;9648;51.130;13.978;2024-01-16T07:14:57;6.90;;;2.57;;
19030;SDS011;9648;51.130;13.978;2024-01-16T07:17:59;8.63;;;2.53;;
19030;SDS011;9648;51.130;13.978;2024-01-16T07:21:01;10.03;;;2.77;;
19030;SDS011;9648;51.130;13.978;2024-01-16T07:24:03;11.53;;;2.90;;
19030;SDS011;9648;51.130;13.978;2024-01-16T07:27:06;8.10;;;2.83;;
19030;SDS011;9648;51.130;13.978;2024-01-16T07:30:08;5.97;;;3.17;;
19030;SDS011;9648;51.130;13.978;2024-01-16T07:33:11;9.10;;;3.40;;
19030;SDS011;9648;51.130;13.978;2024-01-16T07:36:13;8.57;;;3.30;;
19030;SDS011;9648;51.130;13.978;2024-01-16T07:39:14;8.17;;;3.33;;
19030;SDS011;9648;51.130;13.978;2024-01-16T07:42:18;5.07;;;2.77;;
19030;SDS011;9648;51.130;13.978;2024-01-16T07:45:20;6.07;;;3.10;;
19030;SDS011;9648;51.130;13.978;2024-01-16T07:48:21;5.90;;;2.63;;
19030;SDS011;9648;51.130;13.978;2024-01-16T07:51:23;8.93;;;2.87;;
19030;SDS011;9648;51.130;13.978;2024-01-16T07:54:24;4.90;;;2.67;;
19030;SDS011;9648;51.130;13.978;2024-01-16T07:57:27;8.13;;;2.87;;
19030;SDS011;9648;51.130;13.978;2024-01-16T08:00:28;8.20;;;2.73;;
19030;SDS011;9648;51.130;13.978;2024-01-16T08:03:30;7.53;;;3.10;;
19030;SDS011;9648;51.130;13.978;2024-01-16T08:06:32;5.10;;;2.60;;
19030;SDS011;9648;51.130;13.978;2024-01-16T08:09:34;8.27;;;2.57;;
19030;SDS011;9648;51.130;13.978;2024-01-16T08:12:37;5.20;;;2.87;;
19030;SDS011;9648;51.130;13.978;2024-01-16T08:15:39;7.10;;;2.90;;
19030;SDS011;9648;51.130;13.978;2024-01-16T08:18:41;5.67;;;2.30;;
19030;SDS011;9648;51.130;13.978;2024-01-16T08:21:42;6.43;;;2.40;;
19030;SDS011;9648;51.130;13.978;2024-01-16T08:24:44;6.13;;;1.93;;
19030;SDS011;9648;51.130;13.978;2024-01-16T08:27:47;2.97;;;1.87;;
19030;SDS011;9648;51.130;13.978;2024-01-16T08:30:48;5.77;;;1.97;;
19030;SDS011;9648;51.130;13.978;2024-01-16T08:33:50;9.57;;;2.13;;
19030;SDS011;9648;51.130;13.978;2024-01-16T08:36:52;8.53;;;2.47;;
19030;SDS011;9648;51.130;13.978;2024-01-16T08:39:56;10.33;;;2.10;;
19030;SDS011;9648;51.130;13.978;2024-01-16T08:42:59;8.90;;;2.27;;
19030;SDS011;9648;51.130;13.978;2024-01-16T08:46:01;6.00;;;2.47;;
19030;SDS011;9648;51.130;13.978;2024-01-16T08:49:03;3.57;;;2.30;;
19030;SDS011;9648;51.130;13.978;2024-01-16T08:52:05;8.80;;;2.63;;
19030;SDS011;9648;51.130;13.978;2024-01-16T08:55:06;10.53;;;3.20;;
19030;SDS011;9648;51.130;13.978;2024-01-16T08:58:10;6.40;;;2.70;;
19030;SDS011;9648;51.130;13.978;2024-01-16T09:01:12;7.27;;;2.13;;
19030;SDS011;9648;51.130;13.978;2024-01-16T09:04:13;6.73;;;2.20;;
19030;SDS011;9648;51.130;13.978;2024-01-16T09:07:14;5.10;;;2.50;;
19030;SDS011;9648;51.130;13.978;2024-01-16T09:10:16;9.27;;;2.90;;
19030;SDS011;9648;51.130;13.978;2024-01-16T09:13:19;9.80;;;3.20;;
19030;SDS011;9648;51.130;13.978;2024-01-16T09:16:21;8.43;;;2.93;;
19030;SDS011;9648;51.130;13.978;2024-01-16T09:19:23;8.43;;;4.30;;
19030;SDS011;9648;51.130;13.978;2024-01-16T09:22:25;4.67;;;2.87;;
19030;SDS011;9648;51.130;13.978;2024-01-16T09:25:26;6.67;;;2.40;;
19030;SDS011;9648;51.130;13.978;2024-01-16T09:28:31;7.37;;;2.60;;
19030;SDS011;9648;51.130;13.978;2024-01-16T09:31:32;6.77;;;2.60;;
19030;SDS011;9648;51.130;13.978;2024-01-16T09:34:35;9.37;;;3.00;;
19030;SDS011;9648;51.130;13.978;2024-01-16T09:37:37;7.43;;;3.50;;
19030;SDS011;9648;51.130;13.978;2024-01-16T09:40:40;8.03;;;2.90;;
19030;SDS011;9648;51.130;13.978;2024-01-16T09:43:42;9.03;;;4.07;;
19030;SDS011;9648;51.130;13.978;2024-01-16T09:46:45;6.23;;;2.93;;
19030;SDS011;9648;51.130;13.978;2024-01-16T09:49:47;8.70;;;2.90;;
19030;SDS011;9648;51.130;13.978;2024-01-16T09:52:49;9.93;;;2.87;;
19030;SDS011;9648;51.130;13.978;2024-01-16T09:55:50;5.47;;;3.13;;
19030;SDS011;9648;51.130;13.978;2024-01-16T09:58:58;10.13;;;2.80;;
19030;SDS011;9648;51.130;13.978;2024-01-16T10:02:05;5.20;;;2.60;;
19030;SDS011;9648;51.130;13.978;2024-01-16T10:05:09;8.87;;;2.30;;
19030;SDS011;9648;51.130;13.978;2024-01-16T10:08:11;8.00;;;2.50;;
19030;SDS011;9648;51.130;13.978;2024-01-16T10:11:13;6.50;;;2.40;;
19030;SDS011;9648;51.130;13.978;2024-01-16T10:14:16;10.30;;;2.47;;
19030;SDS011;9648;51.130;13.978;2024-01-16T10:17:20;4.70;;;2.23;;
19030;SDS011;9648;51.130;13.978;2024-01-16T10:20:31;10.60;;;2.47;;
19030;SDS011;9648;51.130;13.978;2024-01-16T10:23:33;6.27;;;2.30;;
19030;SDS011;9648;51.130;13.978;2024-01-16T10:26:34;4.83;;;2.20;;
19030;SDS011;9648;51.130;13.978;2024-01-16T10:29:37;7.80;;;2.30;;
19030;SDS011;9648;51.130;13.978;2024-01-16T10:32:55;8.07;;;2.40;;
19030;SDS011;9648;51.130;13.978;2024-01-16T10:36:10;6.83;;;2.40;;
19030;SDS011;9648;51.130;13.978;2024-01-16T10:39:13;5.93;;;2.33;;
19030;SDS011;9648;51.130;13.978;2024-01-16T10:42:15;5.20;;;2.10;;
19030;SDS011;9648;51.130;13.978;2024-01-16T10:45:18;8.93;;;2.50;;
19030;SDS011;9648;51.130;13.978;2024-01-16T10:48:20;6.17;;;2.37;;
19030;SDS011;9648;51.130;13.978;2024-01-16T10:51:21;6.30;;;2.80;;
19030;SDS011;9648;51.130;13.978;2024-01-16T10:54:23;5.57;;;2.80;;
19030;SDS011;9648;51.130;13.978;2024-01-16T10:57:24;6.67;;;2.53;;
19030;SDS011;9648;51.130;13.978;2024-01-16T11:00:28;6.90;;;2.30;;
19030;SDS011;9648;51.130;13.978;2024-01-16T11:03:32;5.90;;;2.17;;
19030;SDS011;9648;51.130;13.978;2024-01-16T11:06:36;5.50;;;2.30;;
19030;SDS011;9648;51.130;13.978;2024-01-16T11:09:44;7.00;;;2.60;;
19030;SDS011;9648;51.130;13.978;2024-01-16T11:12:46;8.90;;;2.93;;
19030;SDS011;9648;51.130;13.978;2024-01-16T11:15:49;5.00;;;1.87;;
19030;SDS011;9648;51.130;13.978;2024-01-16T11:18:50;4.17;;;2.30;;
19030;SDS011;9648;51.130;13.978;2024-01-16T11:21:52;7.13;;;2.50;;
19030;SDS011;9648;51.130;13.978;2024-01-16T11:25:13;5.13;;;2.20;;
19030;SDS011;9648;51.130;13.978;2024-01-16T11:28:14;6.80;;;2.33;;
19030;SDS011;9648;51.130;13.978;2024-01-16T11:31:28;4.90;;;2.10;;
19030;SDS011;9648;51.130;13.978;2024-01-16T11:37:57;6.33;;;2.90;;
19030;SDS011;9648;51.130;13.978;2024-01-16T11:41:05;8.50;;;2.90;;
19030;SDS011;9648;51.130;13.978;2024-01-16T11:44:06;6.93;;;2.53;;
19030;SDS011;9648;51.130;13.978;2024-01-16T11:47:10;7.63;;;2.50;;
19030;SDS011;9648;51.130;13.978;2024-01-16T11:50:26;5.33;;;2.70;;
19030;SDS011;9648;51.130;13.978;2024-01-16T11:53:33;5.77;;;2.53;;
19030;SDS011;9648;51.130;13.978;2024-01-16T11:56:55;7.50;;;2.53;;
19030;SDS011;9648;51.130;13.978;2024-01-16T12:00:16;6.20;;;2.10;;
19030;SDS011;9648;51.130;13.978;2024-01-16T12:03:22;6.80;;;2.43;;
19030;SDS011;9648;51.130;13.978;2024-01-16T12:06:23;4.87;;;2.23;;
19030;SDS011;9648;51.130;13.978;2024-01-16T12:09:25;4.23;;;2.20;;
19030;SDS011;9648;51.130;13.978;2024-01-16T12:12:27;9.10;;;2.27;;
19030;SDS011;9648;51.130;13.978;2024-01-16T12:15:29;7.17;;;2.50;;
19030;SDS011;9648;51.130;13.978;2024-01-16T12:18:33;5.30;;;2.13;;
19030;SDS011;9648;51.130;13.978;2024-01-16T12:21:35;11.13;;;2.60;;
19030;SDS011;9648;51.130;13.978;2024-01-16T12:24:41;5.63;;;2.17;;
19030;SDS011;9648;51.130;13.978;2024-01-16T12:27:42;3.10;;;2.27;;
19030;SDS011;9648;51.130;13.978;2024-01-16T12:30:48;4.07;;;2.17;;
19030;SDS011;9648;51.130;13.978;2024-01-16T12:33:52;4.60;;;2.27;;
19030;SDS011;9648;51.130;13.978;2024-01-16T12:36:56;7.53;;;2.50;;
19030;SDS011;9648;51.130;13.978;2024-01-16T12:40:05;4.67;;;2.50;;
19030;SDS011;9648;51.130;13.978;2024-01-16T12:43:09;3.60;;;2.30;;
19030;SDS011;9648;51.130;13.978;2024-01-16T12:46:11;5.23;;;2.00;;
19030;SDS011;9648;51.130;13.978;2024-01-16T12:49:14;4.33;;;2.47;;
19030;SDS011;9648;51.130;13.978;2024-01-16T12:52:19;5.27;;;2.37;;
19030;SDS011;9648;51.130;13.978;2024-01-16T12:55:22;5.13;;;2.00;;
19030;SDS011;9648;51.130;13.978;2024-01-16T12:58:23;4.60;;;2.03;;
19030;SDS011;9648;51.130;13.978;2024-01-16T13:01:27;4.30;;;2.30;;
19030;SDS011;9648;51.130;13.978;2024-01-16T13:04:31;6.43;;;2.07;;
19030;SDS011;9648;51.130;13.978;2024-01-16T13:07:32;3.07;;;1.80;;
19030;SDS011;9648;51.130;13.978;2024-01-16T13:10:34;8.37;;;2.57;;
19030;SDS011;9648;51.130;13.978;2024-01-16T13:13:35;5.23;;;2.07;;
19030;SDS011;9648;51.130;13.978;2024-01-16T13:16:37;5.10;;;2.23;;
19030;SDS011;9648;51.130;13.978;2024-01-16T13:19:41;3.63;;;1.97;;
19030;SDS011;9648;51.130;13.978;2024-01-16T13:22:43;11.67;;;2.67;;
19030;SDS011;9648;51.130;13.978;2024-01-16T13:25:46;7.30;;;2.37;;
19030;SDS011;9648;51.130;13.978;2024-01-16T13:28:48;4.47;;;2.43;;
19030;SDS011;9648;51.130;13.978;2024-01-16T13:31:50;7.53;;;2.07;;
19030;SDS011;9648;51.130;13.978;2024-01-16T13:34:56;3.53;;;1.90;;
19030;SDS011;9648;51.130;13.978;2024-01-16T13:37:58;5.13;;;2.13;;
19030;SDS011;9648;51.130;13.978;2024-01-16T13:40:59;6.20;;;1.67;;
19030;SDS011;9648;51.130;13.978;2024-01-16T13:44:02;8.33;;;1.90;;
19030;SDS011;9648;51.130;13.978;2024-01-16T13:47:05;2.83;;;1.63;;
19030;SDS011;9648;51.130;13.978;2024-01-16T13:50:08;8.40;;;2.60;;
19030;SDS011;9648;51.130;13.978;2024-01-16T13:53:10;5.40;;;2.13;;
19030;SDS011;9648;51.130;13.978;2024-01-16T13:56:13;4.47;;;2.00;;
19030;SDS011;9648;51.130;13.978;2024-01-16T13:59:15;5.67;;;1.87;;
19030;SDS011;9648;51.130;13.978;2024-01-16T14:02:17;5.40;;;1.80;;
19030;SDS011;9648;51.130;13.978;2024-01-16T14:05:20;3.73;;;1.93;;
19030;SDS011;9648;51.130;13.978;2024-01-16T14:08:22;3.73;;;2.10;;
19030;SDS011;9648;51.130;13.978;2024-01-16T14:11:29;6.63;;;2.17;;
19030;SDS011;9648;51.130;13.978;2024-01-16T14:14:31;9.00;;;2.53;;
19030;SDS011;9648;51.130;13.978;2024-01-16T14:17:33;4.67;;;2.40;;
19030;SDS011;9648;51.130;13.978;2024-01-16T14:20:36;4.60;;;2.10;;
19030;SDS011;9648;51.130;13.978;2024-01-16T14:23:38;4.27;;;2.03;;
19030;SDS011;9648;51.130;13.978;2024-01-16T14:26:41;3.03;;;2.03;;
19030;SDS011;9648;51.130;13.978;2024-01-16T14:29:44;4.10;;;2.07;;
19030;SDS011;9648;51.130;13.978;2024-01-16T14:32:46;3.87;;;2.30;;
19030;SDS011;9648;51.130;13.978;2024-01-16T14:35:50;8.23;;;2.47;;
19030;SDS011;9648;51.130;13.978;2024-01-16T14:38:51;8.00;;;3.00;;
19030;SDS011;9648;51.130;13.978;2024-01-16T14:41:53;5.23;;;2.60;;
19030;SDS011;9648;51.130;13.978;2024-01-16T14:44:55;3.90;;;2.37;;
19030;SDS011;9648;51.130;13.978;2024-01-16T14:47:56;4.70;;;2.33;;
19030;SDS011;9648;51.130;13.978;2024-01-16T14:51:00;3.23;;;2.07;;
19030;SDS011;9648;51.130;13.978;2024-01-16T14:54:02;3.80;;;1.87;;
19030;SDS011;9648;51.130;13.978;2024-01-16T14:57:05;6.60;;;2.20;;
19030;SDS011;9648;51.130;13.978;2024-01-16T15:00:07;2.87;;;1.80;;
19030;SDS011;9648;51.130;13.978;2024-01-16T15:03:14;3.60;;;1.83;;
19030;SDS011;9648;51.130;13.978;2024-01-16T15:06:20;5.60;;;1.80;;
19030;SDS011;9648;51.130;13.978;2024-01-16T15:09:22;5.00;;;1.97;;
19030;SDS011;9648;51.130;13.978;2024-01-16T15:12:23;3.47;;;1.80;;
19030;SDS011;9648;51.130;13.978;2024-01-16T15:15:25;3.70;;;2.00;;
19030;SDS011;9648;51.130;13.978;2024-01-16T15:18:26;3.67;;;1.90;;
19030;SDS011;9648;51.130;13.978;2024-01-16T15:21:29;3.53;;;1.70;;
19030;SDS011;9648;51.130;13.978;2024-01-16T15:24:31;2.83;;;1.43;;
19030;SDS011;9648;51.130;13.978;2024-01-16T15:27:33;4.30;;;1.90;;
19030;SDS011;9648;51.130;13.978;2024-01-16T15:30:35;6.33;;;2.60;;
19030;SDS011;9648;51.130;13.978;2024-01-16T15:33:37;6.37;;;2.80;;
19030;SDS011;9648;51.130;13.978;2024-01-16T15:36:40;8.53;;;3.10;;
19030;SDS011;9648;51.130;13.978;2024-01-16T15:39:42;6.00;;;2.50;;
19030;SDS011;9648;51.130;13.978;2024-01-16T15:42:44;5.27;;;2.63;;
19030;SDS011;9648;51.130;13.978;2024-01-16T15:45:46;8.67;;;2.43;;
19030;SDS011;9648;51.130;13.978;2024-01-16T15:48:48;4.77;;;2.10;;
19030;SDS011;9648;51.130;13.978;2024-01-16T15:51:52;6.50;;;2.13;;
19030;SDS011;9648;51.130;13.978;2024-01-16T15:54:54;4.33;;;1.87;;
19030;SDS011;9648;51.130;13.978;2024-01-16T15:57:55;4.70;;;1.97;;
19030;SDS011;9648;51.130;13.978;2024-01-16T16:00:57;5.20;;;2.20;;
19030;SDS011;9648;51.130;13.978;2024-01-16T16:03:58;6.57;;;1.90;;
19030;SDS011;9648;51.130;13.978;2024-01-16T16:07:02;7.83;;;2.40;;
19030;SDS011;9648;51.130;13.978;2024-01-16T16:10:04;6.57;;;2.83;;
19030;SDS011;9648;51.130;13.978;2024-01-16T16:13:06;6.83;;;2.90;;
19030;SDS011;9648;51.130;13.978;2024-01-16T16:16:09;7.87;;;3.23;;
19030;SDS011;9648;51.130;13.978;2024-01-16T16:19:11;8.50;;;3.83;;
19030;SDS011;9648;51.130;13.978;2024-01-16T16:22:14;7.17;;;4.00;;
19030;SDS011;9648;51.130;13.978;2024-01-16T16:25:15;9.40;;;4.73;;
19030;SDS011;9648;51.130;13.978;2024-01-16T16:28:20;11.10;;;3.87;;
19030;SDS011;9648;51.130;13.978;2024-01-16T16:31:21;6.17;;;3.20;;
19030;SDS011;9648;51.130;13.978;2024-01-16T16:34:23;5.53;;;2.70;;
19030;SDS011;9648;51.130;13.978;2024-01-16T16:37:25;3.43;;;2.30;;
19030;SDS011;9648;51.130;13.978;2024-01-16T16:40:27;4.43;;;2.30;;
19030;SDS011;9648;51.130;13.978;2024-01-16T16:43:28;9.33;;;3.27;;
19030;SDS011;9648;51.130;13.978;2024-01-16T16:46:30;4.10;;;2.60;;
19030;SDS011;9648;51.130;13.978;2024-01-16T16:49:32;4.87;;;2.37;;
19030;SDS011;9648;51.130;13.978;2024-01-16T16:52:35;6.67;;;2.40;;
19030;SDS011;9648;51.130;13.978;2024-01-16T16:55:37;6.00;;;2.80;;
19030;SDS011;9648;51.130;13.978;2024-01-16T16:58:39;6.60;;;3.00;;
19030;SDS011;9648;51.130;13.978;2024-01-16T17:01:41;5.27;;;2.83;;
19030;SDS011;9648;51.130;13.978;2024-01-16T17:04:43;7.37;;;2.93;;
19030;SDS011;9648;51.130;13.978;2024-01-16T17:07:46;6.50;;;3.40;;
19030;SDS011;9648;51.130;13.978;2024-01-16T17:10:47;8.13;;;3.13;;
19030;SDS011;9648;51.130;13.978;2024-01-16T17:13:49;6.47;;;3.17;;
19030;SDS011;9648;51.130;13.978;2024-01-16T17:16:51;7.07;;;3.67;;
19030;SDS011;9648;51.130;13.978;2024-01-16T17:19:52;8.37;;;3.20;;
19030;SDS011;9648;51.130;13.978;2024-01-16T17:22:55;6.47;;;3.60;;
19030;SDS011;9648;51.130;13.978;2024-01-16T17:25:57;7.37;;;3.77;;
19030;SDS011;9648;51.130;13.978;2024-01-16T17:28:59;6.20;;;3.60;;
19030;SDS011;9648;51.130;13.978;2024-01-16T17:32:01;8.10;;;3.60;;
19030;SDS011;9648;51.130;13.978;2024-01-16T17:35:04;7.23;;;3.73;;
19030;SDS011;9648;51.130;13.978;2024-01-16T17:38:09;6.63;;;3.50;;
19030;SDS011;9648;51.130;13.978;2024-01-16T17:41:10;7.77;;;3.37;;
19030;SDS011;9648;51.130;13.978;2024-01-16T17:44:12;6.70;;;3.50;;
19030;SDS011;9648;51.130;13.978;2024-01-16T17:47:14;7.50;;;3.70;;
19030;SDS011;9648;51.130;13.978;2024-01-16T17:50:17;6.13;;;3.27;;
19030;SDS011;9648;51.130;13.978;2024-01-16T17:53:20;6.50;;;2.87;;
19030;SDS011;9648;51.130;13.978;2024-01-16T17:56:21;5.23;;;2.60;;
19030;SDS011;9648;51.130;13.978;2024-01-16T17:59:25;5.07;;;2.80;;
19030;SDS011;9648;51.130;13.978;2024-01-16T18:02:31;7.00;;;3.70;;
19030;SDS011;9648;51.130;13.978;2024-01-16T18:05:32;5.67;;;2.90;;
19030;SDS011;9648;51.130;13.978;2024-01-16T18:08:36;6.83;;;3.33;;
19030;SDS011;9648;51.130;13.978;2024-01-16T18:11:53;6.93;;;3.30;;
19030;SDS011;9648;51.130;13.978;2024-01-16T18:14:55;6.33;;;3.00;;
19030;SDS011;9648;51.130;13.978;2024-01-16T18:17:56;8.13;;;3.73;;
19030;SDS011;9648;51.130;13.978;2024-01-16T18:20:59;7.37;;;3.47;;
19030;SDS011;9648;51.130;13.978;2024-01-16T18:24:02;7.13;;;3.93;;